• Join FlightAware (Why Join?)
  • Login
  • US Flag 
05:26AM EDT


 

Airport Tracker/Info


-or-


 

Live Flight TrackerFlight Track Log ✈ UAL481 ✈ 26-Jun-2013 ✈ KALB - KORD

Flight Track Log - Related Links

Times and Time Zones

All times are in EDT time to prevent confusion due to time zone crossing. See the UAL481 flight status page for this flight to view local times or setup timezone preferences in your user account.

Time Position Orientation Groundspeed Altitude Reporting Facility
EDT Latitude Longitude Course Direction KTS MPH feet Rate Location/Type
07:56PM 42.7236 -73.8081 324° Northwest 172 198 1,300  Level Boston Center
07:57PM 42.7103 -73.8642 252° West 235 270 3,100 2,340 Climbing Boston Center
07:58PM 42.7842 -73.9592 317° Northwest 277 319 7,300 3,180 Climbing Boston Center
07:59PM 42.8436 -74.0286 319° Northwest 277 319 10,800 2,580 Climbing Boston Center
08:00PM 42.8467 -74.4131 283° West  Level FlightAware Approximate
08:00PM 42.9072 -74.1097 317° Northwest 293 337 12,500  Level Boston Center
08:01PM 42.8693 -74.5359 324° Northwest  Level FlightAware Approximate
08:01PM 42.9786 -74.1997 317° Northwest 358 412 15,300  Level Boston Center
08:02PM 43.0264 -74.3458 294° West 392 451 18,600 3,060 Climbing Boston Center
08:03PM 43.0364 -74.4911 275° West 399 459 21,500 2,160 Climbing Boston Center
08:04PM 43.0503 -74.6422 277° West 409 471 23,000 1,380 Climbing Boston Center
08:05PM 43.0617 -74.8017 276° West 414 476 24,300 1,320 Climbing Boston Center
08:06PM 43.0778 -75.0156 276° West 428 493 26,000 1,620 Climbing Boston Center
08:07PM 43.0906 -75.1894 276° West 447 514 27,900 1,500 Climbing Boston Center
08:08PM 43.1031 -75.3522 276° West 447 514 29,100 1,020 Climbing Boston Center
08:09PM 43.1133 -75.5206 275° West 447 514 30,000 900 Climbing Boston Center
08:10PM 43.1253 -75.6833 276° West 447 514 30,900 1,020 Climbing Boston Center
08:11PM 43.1372 -75.8519 276° West 441 507 32,100 1,200 Climbing Boston Center
08:13PM 43.1333 -76.0833 269° West 430 495 34,100 720 Climbing Toronto Center
08:14PM 43.1500 -76.2500 278° West 430 495 34,100  Level Toronto Center
08:15PM 43.1500 -76.4167 270° West 440 506 34,100  Level Toronto Center
08:16PM 43.1333 -76.6000 263° West 440 506 34,100  Level Toronto Center
08:17PM 43.1500 -76.7500 279° West 440 506 34,100  Level Toronto Center
08:18PM 43.1500 -76.9167 270° West 440 506 34,100  Level Toronto Center
08:19PM 43.1583 -77.1792 273° West 443 510 34,100  Level Cleveland Center
08:20PM 43.1569 -77.3472 269° West 443 510 34,100 -60 Level Cleveland Center
08:21PM 43.1553 -77.5153 269° West 443 510 34,000  Descending Cleveland Center
08:22PM 43.1533 -77.6775 269° West 443 510 34,100  Climbing Cleveland Center
08:23PM 43.1531 -77.8456 270° West 443 510 34,100  Level Cleveland Center
08:24PM 43.1506 -78.0078 269° West 443 510 34,100  Level Cleveland Center
08:25PM 43.1458 -78.1758 268° West 443 510 34,100  Level Cleveland Center
08:26PM 43.1431 -78.3411 269° West 443 510 34,100  Level Cleveland Center
08:27PM 43.1378 -78.5092 268° West 443 510 34,100  Level Cleveland Center
08:28PM 43.1344 -78.6744 268° West 443 510 34,100  Level Cleveland Center
08:29PM 43.1308 -78.8450 268° West 443 510 34,100  Level Cleveland Center
08:30PM 43.1167 -78.9333 258° West 440 506 34,100  Level Toronto Center
08:31PM 43.1167 -79.0833 270° West 440 506 34,100  Level Toronto Center
08:32PM 43.1000 -79.2500 262° West 440 506 34,100 -60 Level Toronto Center
08:33PM 43.1000 -79.4333 270° West 440 506 34,000  Descending Toronto Center
08:34PM 43.1000 -79.5833 270° West 440 506 34,100  Climbing Toronto Center
08:35PM 43.0833 -79.7667 263° West 430 495 34,100  Level Toronto Center
08:36PM 43.0833 -79.9333 270° West 430 495 34,100  Level Toronto Center
08:37PM 43.0833 -80.0833 270° West 430 495 34,100  Level Toronto Center
08:38PM 43.0667 -80.2500 262° West 430 495 34,100 -60 Level Toronto Center
08:39PM 43.0667 -80.4167 270° West 430 495 34,000  Descending Toronto Center
08:40PM 43.0500 -80.5667 261° West 430 495 34,100  Climbing Toronto Center
08:41PM 43.0500 -80.7500 270° West 440 506 34,100 -60 Level Toronto Center
08:42PM 43.0333 -80.9167 262° West 440 506 34,000  Descending Toronto Center
08:43PM 43.0167 -81.1000 263° West 440 506 34,100  Climbing Toronto Center
08:44PM 43.0167 -81.2500 270° West 440 506 34,100  Level Toronto Center
08:45PM 43.0167 -81.4167 270° West 440 506 34,100 -60 Level Toronto Center
08:46PM 43.0167 -81.6000 270° West 440 506 34,000  Descending Toronto Center
08:47PM 43.0167 -81.7500 270° West 450 518 34,100  Climbing Toronto Center
08:48PM 43.0000 -81.9333 263° West 450 518 34,100  Level Toronto Center
08:49PM 43.0000 -82.1000 270° West 450 518 34,100  Level Toronto Center
08:50PM 43.0000 -82.2500 270° West 440 506 34,100  Level Toronto Center
08:51PM 43.0000 -82.4333 270° West 440 506 34,100  Level Toronto Center
08:52PM 43.0000 -82.6000 270° West 440 506 34,100  Level Toronto Center
08:53PM 43.0014 -82.7039 271° West 441 507 34,100 -120 Level Cleveland Center
08:54PM 42.9961 -82.8711 268° West 441 507 34,000  Descending Cleveland Center
08:55PM 42.9906 -83.0411 267° West 441 507 34,100  Climbing Cleveland Center
08:56PM 42.9867 -83.2086 268° West 441 507 34,000 -540 Descending Cleveland Center
08:57PM 42.9808 -83.3758 267° West 441 507 33,100 -960 Descending Cleveland Center
08:58PM 42.9744 -83.5458 267° West 448 516 32,100 -540 Descending Cleveland Center
08:59PM 42.9678 -83.7158 267° West 448 516 32,100  Level Cleveland Center
09:00PM 42.9528 -83.8853 263° West 453 521 32,100 -60 Level Cleveland Center
09:01PM 42.9372 -84.0544 263° West 458 527 32,000  Descending Cleveland Center
09:02PM 42.9194 -84.2267 262° West 458 527 32,100  Climbing Cleveland Center
09:03PM 42.9044 -84.3731 262° West 463 533 32,100  Level Cleveland Center
09:04PM 42.8883 -84.5394 263° West 457 526 32,100  Level Cleveland Center
09:05PM 42.8617 -84.8000 262° West 452 520 32,100  Level Chicago Center
09:06PM 42.8447 -84.9678 262° West 448 516 32,100 -180 Level Chicago Center
09:07PM 42.8261 -85.1358 261° West 448 516 31,800 -840 Descending Chicago Center
09:08PM 42.8083 -85.3033 262° West 447 514 30,400 -1,500 Descending Chicago Center
09:09PM 42.7894 -85.4719 261° West 449 517 28,700 -1,800 Descending Chicago Center
09:10PM 42.7608 -85.6397 257° West 452 520 26,700 -2,160 Descending Chicago Center
09:11PM 42.7253 -85.8350 256° West 442 509 24,300 -2,040 Descending Chicago Center
09:12PM 42.6975 -85.9906 256° West 424 488 22,500 -1,680 Descending Chicago Center
09:13PM 42.6700 -86.1400 256° West 410 472 20,900 -1,260 Descending Chicago Center
09:14PM 42.6439 -86.2867 256° West 400 460 20,000 -1,080 Descending Chicago Center
09:15PM 42.6161 -86.4286 255° West 390 449 18,700 -1,500 Descending Chicago Center
09:17PM 42.5894 -86.5714 256° West 390 449 16,900 -1,740 Descending Chicago Center
09:18PM 42.5625 -86.7106 255° West 384 442 15,200 -1,860 Descending Chicago Center
09:19PM 42.5222 -86.8708 251° West 378 435 13,100 -1,980 Descending Chicago Center
09:20PM 42.4858 -87.0003 249° West 371 427 11,100 -1,500 Descending Chicago Center
09:21PM 42.4511 -87.1217 249° West 355 409 10,000 -960 Descending Chicago Center
09:22PM 42.4225 -87.2289 250° West 318 366 9,200 -1,200 Descending Chicago Center
09:23PM 42.3761 -87.3142 234° Southwest 305 351 7,600 -1,620 Descending Chicago Center
09:24PM 42.2839 -87.3486 195° South 293 337 5,900 -1,260 Descending Chicago Center
09:25PM 42.2075 -87.3700 192° South 282 325 5,000 -900 Descending Chicago Center
09:26PM 42.1294 -87.3764 183° South 279 321 4,100 -540 Descending Chicago Center
09:27PM 42.0558 -87.3853 185° South 273 314 4,000 -60 Descending Chicago Center
09:28PM 42.0092 -87.4300 215° Southwest 238 274 4,000  Level Chicago Center
09:29PM 42.0028 -87.5269 265° West 221 254 4,000  Level Chicago Center
09:30PM 42.0022 -87.6072 269° West 220 253 4,000  Level Chicago Center